createdAt,value
2019-01-10T00:01:18.426Z,101274.39
2019-01-10T00:03:59.759Z,101279.05
2019-01-10T00:06:40.229Z,101283.48
2019-01-10T00:09:20.911Z,101289.61
2019-01-10T00:12:02.068Z,101298.56
2019-01-10T00:14:42.228Z,101310.20
2019-01-10T00:17:23.059Z,101314.41
2019-01-10T00:20:03.895Z,101315.22
2019-01-10T00:22:44.938Z,101311.91
2019-01-10T00:25:25.587Z,101325.55
2019-01-10T00:28:06.163Z,101320.67
2019-01-10T00:30:46.753Z,101325.37
2019-01-10T00:33:27.684Z,101334.50
2019-01-10T00:36:08.263Z,101328.02
2019-01-10T00:38:49.145Z,101334.30
2019-01-10T00:41:30.303Z,101346.51
2019-01-10T00:44:11.184Z,101350.05
2019-01-10T00:46:51.954Z,101353.20
2019-01-10T00:49:32.544Z,101365.55
2019-01-10T00:52:12.990Z,101371.06
2019-01-10T00:54:53.850Z,101385.01
2019-01-10T00:57:34.705Z,101387.94
2019-01-10T01:00:16.322Z,101407.27
2019-01-10T01:02:57.222Z,101404.44
2019-01-10T01:05:37.939Z,101407.19
2019-01-10T01:08:18.411Z,101407.03
2019-01-10T01:10:59.678Z,101412.95
2019-01-10T01:13:40.252Z,101420.32
2019-01-10T01:16:22.135Z,101423.63
2019-01-10T01:19:02.502Z,101431.00
2019-01-10T01:21:43.674Z,101432.67
2019-01-10T01:24:24.386Z,101439.27
2019-01-10T01:27:05.145Z,101447.98
2019-01-10T01:29:46.098Z,101454.04
2019-01-10T01:32:26.495Z,101464.69
2019-01-10T01:35:07.904Z,101472.05
2019-01-10T01:37:48.522Z,101477.25
2019-01-10T01:40:29.584Z,101482.00
2019-01-10T01:43:09.863Z,101489.19
2019-01-10T01:45:50.494Z,101499.83
2019-01-10T01:48:31.366Z,101507.38
2019-01-10T01:51:12.389Z,101500.31
2019-01-10T01:53:53.103Z,101502.62
2019-01-10T01:56:33.905Z,101515.89
2019-01-10T01:59:14.425Z,101526.15
2019-01-10T02:01:55.324Z,101521.83
2019-01-10T02:04:36.285Z,101527.77
2019-01-10T02:07:17.064Z,101532.29
2019-01-10T02:09:57.820Z,101535.39
2019-01-10T02:12:39.076Z,101533.70
2019-01-10T02:15:20.066Z,101532.48
2019-01-10T02:18:01.619Z,101531.51
2019-01-10T02:20:42.075Z,101542.09
2019-01-10T02:23:22.985Z,101562.86
2019-01-10T02:26:03.557Z,101564.28
2019-01-10T02:28:44.357Z,101565.13
2019-01-10T02:31:25.507Z,101573.36
2019-01-10T02:34:06.747Z,101580.52
2019-01-10T02:36:47.157Z,101579.77
2019-01-10T02:39:28.119Z,101582.92
2019-01-10T02:42:09.186Z,101589.67
2019-01-10T02:44:50.268Z,101593.89
2019-01-10T02:47:31.145Z,101589.59
2019-01-10T02:50:12.125Z,101598.06
2019-01-10T02:52:52.901Z,101599.49
2019-01-10T02:55:33.791Z,101598.11
2019-01-10T02:58:14.588Z,101602.26
2019-01-10T03:00:54.894Z,101608.64
2019-01-10T03:03:35.777Z,101610.09
2019-01-10T03:06:16.265Z,101601.96
2019-01-10T03:08:57.113Z,101605.38
2019-01-10T03:11:37.323Z,101606.77
2019-01-10T03:14:18.584Z,101607.73
2019-01-10T03:16:59.725Z,101610.99
2019-01-10T03:19:40.353Z,101613.30
2019-01-10T03:22:21.141Z,101619.42
2019-01-10T03:25:02.363Z,101613.98
2019-01-10T03:27:42.477Z,101611.36
2019-01-10T03:30:24.023Z,101615.92
2019-01-10T03:33:05.036Z,101621.66
2019-01-10T03:35:46.269Z,101613.91
2019-01-10T03:38:26.398Z,101621.27
2019-01-10T03:41:07.061Z,101619.00
2019-01-10T03:43:47.938Z,101619.72
2019-01-10T03:46:29.450Z,101615.25
2019-01-10T03:49:10.899Z,101614.05
2019-01-10T03:51:52.666Z,101606.65
2019-01-10T03:54:33.638Z,101606.65
2019-01-10T03:57:14.557Z,101601.48
2019-01-10T03:59:55.310Z,101600.34
2019-01-10T04:02:36.392Z,101590.64
2019-01-10T04:05:17.191Z,101592.18
2019-01-10T04:07:58.207Z,101595.44
2019-01-10T04:10:38.879Z,101597.38
2019-01-10T04:13:19.722Z,101588.95
2019-01-10T04:16:00.110Z,101579.48
2019-01-10T04:18:40.866Z,101574.84
2019-01-10T04:21:21.069Z,101580.88
2019-01-10T04:24:02.105Z,101571.89
2019-01-10T04:26:42.946Z,101575.05
2019-01-10T04:29:23.961Z,101571.09
2019-01-10T04:32:04.837Z,101577.88
2019-01-10T04:34:46.130Z,101567.89
2019-01-10T04:37:27.177Z,101569.22
2019-01-10T04:40:08.493Z,101568.48
2019-01-10T04:42:49.468Z,101569.36
2019-01-10T04:45:29.866Z,101560.57
2019-01-10T04:48:10.984Z,101561.79
2019-01-10T04:50:51.552Z,101557.30
2019-01-10T04:53:32.565Z,101560.52
2019-01-10T04:56:13.481Z,101556.63
2019-01-10T04:58:54.263Z,101546.66
2019-01-10T05:01:34.503Z,101539.63
2019-01-10T05:04:15.192Z,101542.79
2019-01-10T05:06:55.069Z,101539.86
2019-01-10T05:09:35.383Z,101533.37
2019-01-10T05:12:16.141Z,101527.95
2019-01-10T05:14:56.633Z,101517.40
2019-01-10T05:17:37.794Z,101524.10
2019-01-10T05:20:17.841Z,101519.80
2019-01-10T05:22:57.997Z,101516.93
2019-01-10T05:25:38.745Z,101517.33
2019-01-10T05:28:19.321Z,101509.77
2019-01-10T05:30:59.783Z,101512.95
2019-01-10T05:33:40.112Z,101517.97
2019-01-10T05:36:20.835Z,101506.69
2019-01-10T05:39:01.152Z,101511.21
2019-01-10T05:41:41.269Z,101506.86
2019-01-10T05:44:26.592Z,101506.53
2019-01-10T05:47:02.462Z,101496.39
2019-01-10T05:49:42.599Z,101497.23
2019-01-10T05:52:22.654Z,101491.75
2019-01-10T05:55:03.224Z,101494.56
2019-01-10T05:57:43.266Z,101491.22
2019-01-10T06:00:23.463Z,101490.91
2019-01-10T06:03:03.592Z,101491.56
2019-01-10T06:05:44.084Z,101485.03
2019-01-10T06:08:25.218Z,101481.41
2019-01-10T06:11:05.808Z,101475.56
2019-01-10T06:13:46.745Z,101462.41
2019-01-10T06:16:28.512Z,101460.72
2019-01-10T06:19:09.411Z,101460.33
2019-01-10T06:21:50.743Z,101452.32
2019-01-10T06:24:31.794Z,101446.40
2019-01-10T06:27:12.676Z,101434.89
2019-01-10T06:29:53.148Z,101437.70
2019-01-10T06:32:33.671Z,101435.80
2019-01-10T06:38:00.993Z,101424.83
2019-01-10T06:40:42.265Z,101414.45
2019-01-10T06:43:23.314Z,101415.83
2019-01-10T06:46:04.200Z,101410.48
2019-01-10T06:48:44.587Z,101402.61
2019-01-10T06:51:25.285Z,101390.22
2019-01-10T06:54:05.868Z,101387.39
2019-01-10T06:56:46.755Z,101379.27
2019-01-10T06:59:27.543Z,101373.00
2019-01-10T07:02:12.205Z,101365.75
2019-01-10T07:04:53.346Z,101355.11
2019-01-10T07:07:33.916Z,101355.31
2019-01-10T07:10:14.788Z,101347.47
2019-01-10T07:12:55.427Z,101345.47
2019-01-10T07:15:35.719Z,101340.66
2019-01-10T07:18:16.559Z,101333.41
2019-01-10T07:20:57.363Z,101327.11
2019-01-10T07:23:37.907Z,101324.98
2019-01-10T07:26:18.361Z,101325.08
2019-01-10T07:28:58.663Z,101314.78
2019-01-10T07:31:38.991Z,101317.55
2019-01-10T07:34:19.474Z,101305.23
2019-01-10T07:36:59.713Z,101300.22
2019-01-10T07:39:40.276Z,101299.38
2019-01-10T07:42:20.718Z,101302.92
2019-01-10T07:45:02.766Z,101304.23
2019-01-10T07:47:43.073Z,101300.11
2019-01-10T07:50:23.753Z,101302.02
2019-01-10T07:53:04.230Z,101295.47
2019-01-10T07:55:44.426Z,101289.61
2019-01-10T07:58:25.352Z,101283.70
2019-01-10T08:01:05.711Z,101280.67
2019-01-10T08:03:46.467Z,101276.66
2019-01-10T08:06:26.834Z,101270.57
2019-01-10T08:09:08.353Z,101269.92
2019-01-10T08:11:48.548Z,101268.90
2019-01-10T08:14:28.908Z,101262.84
2019-01-10T08:17:15.929Z,101260.30
2019-01-10T08:19:51.704Z,101263.50
2019-01-10T08:22:32.988Z,101254.16
2019-01-10T08:25:13.347Z,101252.33
2019-01-10T08:27:53.972Z,101255.00
2019-01-10T08:30:34.984Z,101255.42
2019-01-10T08:33:15.963Z,101255.28
2019-01-10T08:35:56.826Z,101251.47
2019-01-10T08:38:37.787Z,101249.47
2019-01-10T08:41:18.754Z,101252.09
2019-01-10T08:44:00.023Z,101251.67
2019-01-10T08:46:40.792Z,101248.72
2019-01-10T08:49:21.944Z,101253.10
2019-01-10T08:52:02.985Z,101253.83
2019-01-10T08:54:43.335Z,101243.87
2019-01-10T08:57:24.343Z,101245.45
2019-01-10T09:00:05.585Z,101244.26
2019-01-10T09:02:47.065Z,101237.91
2019-01-10T09:05:27.735Z,101235.30
2019-01-10T09:08:08.732Z,101232.75
2019-01-10T09:10:49.946Z,101228.16
2019-01-10T09:13:31.234Z,101228.44
2019-01-10T09:16:12.144Z,101225.53
2019-01-10T09:18:53.233Z,101227.36
2019-01-10T09:21:33.787Z,101224.33
2019-01-10T09:24:14.584Z,101223.22
2019-01-10T09:26:55.707Z,101218.40
2019-01-10T09:29:36.705Z,101217.05
2019-01-10T09:32:17.797Z,101215.72
2019-01-10T09:34:58.905Z,101212.28
2019-01-10T09:37:40.198Z,101218.98
2019-01-10T09:40:21.784Z,101222.16
2019-01-10T09:43:03.114Z,101221.50
2019-01-10T09:45:44.026Z,101228.85
2019-01-10T09:48:25.638Z,101229.17
2019-01-10T09:51:06.134Z,101215.16
2019-01-10T09:53:47.313Z,101222.03
2019-01-10T09:56:28.571Z,101222.18
2019-01-10T09:59:09.743Z,101223.19
2019-01-10T10:01:51.390Z,101221.67
2019-01-10T10:04:32.426Z,101224.69
2019-01-10T10:07:13.741Z,101222.05
2019-01-10T10:09:54.588Z,101223.91
2019-01-10T10:12:35.701Z,101231.05
2019-01-10T10:15:16.904Z,101235.88
2019-01-10T10:17:57.793Z,101243.05
2019-01-10T10:20:38.673Z,101242.38
2019-01-10T10:23:26.703Z,101241.66
2019-01-10T10:26:01.387Z,101240.96
2019-01-10T10:28:42.909Z,101239.77
2019-01-10T10:31:24.186Z,101242.25
2019-01-10T10:34:05.465Z,101250.18
2019-01-10T10:36:46.755Z,101249.63
2019-01-10T10:39:27.711Z,101247.14
2019-01-10T10:42:09.186Z,101250.27
2019-01-10T10:44:50.022Z,101254.06
2019-01-10T10:47:30.824Z,101250.71
2019-01-10T10:50:11.746Z,101242.04
2019-01-10T10:52:52.697Z,101248.98
2019-01-10T10:55:33.186Z,101244.63
2019-01-10T10:58:14.349Z,101254.86
2019-01-10T11:00:55.437Z,101252.62
2019-01-10T11:03:36.429Z,101252.33
2019-01-10T11:06:17.354Z,101258.36
2019-01-10T11:08:58.597Z,101260.69
2019-01-10T11:11:39.386Z,101264.33
2019-01-10T11:14:20.587Z,101267.25
2019-01-10T11:17:01.802Z,101269.37
2019-01-10T11:19:43.065Z,101270.13
2019-01-10T11:22:24.065Z,101262.20
2019-01-10T11:25:04.824Z,101268.93
2019-01-10T11:27:45.794Z,101265.02
2019-01-10T11:30:27.235Z,101266.08
2019-01-10T11:33:08.260Z,101268.07
2019-01-10T11:35:48.825Z,101271.19
2019-01-10T11:38:29.914Z,101279.41
2019-01-10T11:41:11.384Z,101279.88
2019-01-10T11:43:52.296Z,101282.52
2019-01-10T11:46:33.470Z,101283.07
2019-01-10T11:49:14.042Z,101288.11
2019-01-10T11:51:54.549Z,101292.94
2019-01-10T11:54:35.459Z,101296.91
2019-01-10T11:57:16.831Z,101295.63
2019-01-10T11:59:57.597Z,101305.66
2019-01-10T12:02:38.477Z,101307.30
2019-01-10T12:05:18.775Z,101311.39
2019-01-10T12:08:00.357Z,101312.05
2019-01-10T12:10:41.266Z,101313.41
2019-01-10T12:13:21.948Z,101322.30
2019-01-10T12:16:02.920Z,101323.67
2019-01-10T12:18:43.703Z,101332.31
2019-01-10T12:21:24.864Z,101326.70
2019-01-10T12:24:05.192Z,101332.36
2019-01-10T12:26:45.506Z,101336.55
2019-01-10T12:29:25.994Z,101335.72
2019-01-10T12:32:06.554Z,101342.89
2019-01-10T12:34:47.382Z,101348.41
2019-01-10T12:37:27.884Z,101352.00
2019-01-10T12:40:08.142Z,101357.98
2019-01-10T12:42:48.224Z,101358.84
2019-01-10T12:45:28.635Z,101367.08
2019-01-10T12:48:11.257Z,101367.55
2019-01-10T12:50:51.301Z,101366.21
2019-01-10T12:53:31.624Z,101369.70
2019-01-10T12:56:11.870Z,101367.98
2019-01-10T12:58:51.986Z,101381.03
2019-01-10T13:01:32.713Z,101384.97
2019-01-10T13:04:13.153Z,101385.67
2019-01-10T13:06:53.196Z,101389.09
2019-01-10T13:09:33.574Z,101390.34
2019-01-10T13:12:13.828Z,101386.40
2019-01-10T13:14:55.069Z,101390.29
2019-01-10T13:17:35.162Z,101392.32
2019-01-10T13:20:16.309Z,101396.92
2019-01-10T13:22:56.428Z,101401.26
2019-01-10T13:25:37.952Z,101409.23
2019-01-10T13:28:18.749Z,101410.23
2019-01-10T13:30:59.008Z,101412.79
2019-01-10T13:33:42.229Z,101422.08
2019-01-10T13:36:22.551Z,101427.53
2019-01-10T13:41:52.744Z,101426.65
2019-01-10T13:44:32.877Z,101430.30
2019-01-10T13:47:13.018Z,101426.03
2019-01-10T13:49:53.672Z,101428.38
2019-01-10T13:52:34.028Z,101430.91
2019-01-10T13:55:14.400Z,101432.75
2019-01-10T13:57:55.023Z,101431.33
2019-01-10T14:00:37.270Z,101425.66
2019-01-10T14:03:17.864Z,101435.99
2019-01-10T14:05:58.187Z,101427.22
2019-01-10T14:08:38.313Z,101435.41
2019-01-10T14:11:19.237Z,101437.78
2019-01-10T14:13:59.594Z,101451.63
2019-01-10T14:16:39.716Z,101457.94
2019-01-10T14:19:22.234Z,101453.23
2019-01-10T14:22:07.505Z,101455.14
2019-01-10T14:24:50.125Z,101452.73
2019-01-10T14:27:30.713Z,101456.20
2019-01-10T14:30:12.466Z,101450.59
2019-01-10T14:32:52.827Z,101447.37
2019-01-10T14:35:32.834Z,101449.59
2019-01-10T14:38:12.671Z,101444.50
2019-01-10T14:40:53.095Z,101435.22
2019-01-10T14:43:33.519Z,101434.94
2019-01-10T14:46:13.750Z,101434.31
2019-01-10T14:48:53.992Z,101436.91
2019-01-10T14:51:34.033Z,101434.94
2019-01-10T14:54:16.079Z,101435.73
2019-01-10T14:59:33.554Z,101446.05
2019-01-10T15:04:55.634Z,101444.22
2019-01-10T15:07:25.391Z,101445.89
2019-01-10T15:09:54.601Z,101449.75
2019-01-10T15:12:28.622Z,101449.93
2019-01-10T15:15:01.249Z,101453.59
2019-01-10T15:17:32.469Z,101453.98
2019-01-10T15:22:50.040Z,101449.25
2019-01-10T15:25:22.837Z,101452.25
2019-01-10T15:27:55.089Z,101451.31
2019-01-10T15:30:25.909Z,101452.00
2019-01-10T15:32:58.505Z,101447.70
2019-01-10T16:01:07.787Z,101454.91
2019-01-10T16:18:52.156Z,101455.81
2019-01-10T16:54:32.351Z,101467.02
2019-01-10T17:02:07.217Z,101473.19
2019-01-10T17:04:38.824Z,101474.30
2019-01-10T17:37:40.195Z,101467.32
2019-01-10T18:51:22.354Z,101425.52
